sensor_id;sensor_type;location;lat;lon;timestamp;P1;durP1;ratioP1;P2;durP2;ratioP2
76117;SDS011;64851;50.232;20.364;2023-12-04T00:00:29;16.90;;;6.10;;
76117;SDS011;64851;50.232;20.364;2023-12-04T00:03:36;16.30;;;6.30;;
76117;SDS011;64851;50.232;20.364;2023-12-04T00:06:53;13.90;;;6.60;;
76117;SDS011;64851;50.232;20.364;2023-12-04T00:09:48;17.00;;;7.30;;
76117;SDS011;64851;50.232;20.364;2023-12-04T00:12:43;16.70;;;7.00;;
76117;SDS011;64851;50.232;20.364;2023-12-04T00:15:38;17.90;;;7.20;;
76117;SDS011;64851;50.232;20.364;2023-12-04T00:18:13;18.80;;;7.40;;
76117;SDS011;64851;50.232;20.364;2023-12-04T00:21:01;14.80;;;6.40;;
76117;SDS011;64851;50.232;20.364;2023-12-04T00:23:56;16.10;;;6.70;;
76117;SDS011;64851;50.232;20.364;2023-12-04T00:26:31;15.10;;;6.50;;
76117;SDS011;64851;50.232;20.364;2023-12-04T00:29:19;15.60;;;6.20;;
76117;SDS011;64851;50.232;20.364;2023-12-04T00:31:54;14.20;;;6.80;;
76117;SDS011;64851;50.232;20.364;2023-12-04T00:34:42;19.40;;;7.40;;
76117;SDS011;64851;50.232;20.364;2023-12-04T00:37:17;15.90;;;6.50;;
76117;SDS011;64851;50.232;20.364;2023-12-04T00:40:06;17.30;;;6.80;;
76117;SDS011;64851;50.232;20.364;2023-12-04T00:42:41;18.40;;;6.50;;
76117;SDS011;64851;50.232;20.364;2023-12-04T00:45:29;13.80;;;6.60;;
76117;SDS011;64851;50.232;20.364;2023-12-04T00:48:11;16.20;;;6.50;;
76117;SDS011;64851;50.232;20.364;2023-12-04T00:50:54;16.80;;;7.20;;
76117;SDS011;64851;50.232;20.364;2023-12-04T00:53:35;14.00;;;6.10;;
76117;SDS011;64851;50.232;20.364;2023-12-04T00:58:57;13.70;;;5.90;;
76117;SDS011;64851;50.232;20.364;2023-12-04T01:01:44;13.70;;;5.90;;
76117;SDS011;64851;50.232;20.364;2023-12-04T01:04:19;11.90;;;6.30;;
76117;SDS011;64851;50.232;20.364;2023-12-04T01:07:08;15.70;;;7.10;;
76117;SDS011;64851;50.232;20.364;2023-12-04T01:09:42;19.10;;;7.20;;
76117;SDS011;64851;50.232;20.364;2023-12-04T01:12:30;17.50;;;6.40;;
76117;SDS011;64851;50.232;20.364;2023-12-04T01:15:05;14.90;;;6.10;;
76117;SDS011;64851;50.232;20.364;2023-12-04T01:17:53;16.40;;;6.30;;
76117;SDS011;64851;50.232;20.364;2023-12-04T01:20:28;15.10;;;6.70;;
76117;SDS011;64851;50.232;20.364;2023-12-04T01:23:23;17.20;;;6.70;;
76117;SDS011;64851;50.232;20.364;2023-12-04T01:25:58;14.90;;;5.80;;
76117;SDS011;64851;50.232;20.364;2023-12-04T01:28:53;17.50;;;6.70;;
76117;SDS011;64851;50.232;20.364;2023-12-04T01:31:48;18.50;;;7.50;;
76117;SDS011;64851;50.232;20.364;2023-12-04T01:34:23;15.40;;;6.80;;
76117;SDS011;64851;50.232;20.364;2023-12-04T01:37:18;15.50;;;6.80;;
76117;SDS011;64851;50.232;20.364;2023-12-04T01:40:14;17.00;;;6.10;;
76117;SDS011;64851;50.232;20.364;2023-12-04T01:42:50;15.30;;;6.60;;
76117;SDS011;64851;50.232;20.364;2023-12-04T01:45:45;14.90;;;6.60;;
76117;SDS011;64851;50.232;20.364;2023-12-04T01:48:20;14.70;;;5.90;;
76117;SDS011;64851;50.232;20.364;2023-12-04T01:51:09;16.40;;;6.60;;
76117;SDS011;64851;50.232;20.364;2023-12-04T01:53:51;16.10;;;6.70;;
76117;SDS011;64851;50.232;20.364;2023-12-04T01:56:38;17.80;;;7.20;;
76117;SDS011;64851;50.232;20.364;2023-12-04T01:59:13;15.00;;;6.10;;
76117;SDS011;64851;50.232;20.364;2023-12-04T02:02:00;16.70;;;5.80;;
76117;SDS011;64851;50.232;20.364;2023-12-04T02:04:36;16.70;;;6.40;;
76117;SDS011;64851;50.232;20.364;2023-12-04T02:07:25;15.00;;;7.20;;
76117;SDS011;64851;50.232;20.364;2023-12-04T02:10:01;20.30;;;6.70;;
76117;SDS011;64851;50.232;20.364;2023-12-04T02:12:50;15.60;;;6.30;;
76117;SDS011;64851;50.232;20.364;2023-12-04T02:15:25;16.30;;;6.80;;
76117;SDS011;64851;50.232;20.364;2023-12-04T02:18:15;14.00;;;6.60;;
76117;SDS011;64851;50.232;20.364;2023-12-04T02:20:54;12.80;;;5.40;;
76117;SDS011;64851;50.232;20.364;2023-12-04T02:23:41;14.70;;;5.80;;
76117;SDS011;64851;50.232;20.364;2023-12-04T02:26:17;15.80;;;7.10;;
76117;SDS011;64851;50.232;20.364;2023-12-04T02:29:08;17.60;;;7.00;;
76117;SDS011;64851;50.232;20.364;2023-12-04T02:31:46;17.10;;;6.60;;
76117;SDS011;64851;50.232;20.364;2023-12-04T02:34:34;16.10;;;6.70;;
76117;SDS011;64851;50.232;20.364;2023-12-04T02:37:10;17.50;;;6.80;;
76117;SDS011;64851;50.232;20.364;2023-12-04T02:39:58;13.30;;;6.50;;
76117;SDS011;64851;50.232;20.364;2023-12-04T02:42:33;17.00;;;7.30;;
76117;SDS011;64851;50.232;20.364;2023-12-04T02:45:20;16.10;;;6.30;;
76117;SDS011;64851;50.232;20.364;2023-12-04T02:47:56;17.50;;;7.50;;
76117;SDS011;64851;50.232;20.364;2023-12-04T02:50:44;15.80;;;6.90;;
76117;SDS011;64851;50.232;20.364;2023-12-04T02:53:19;18.00;;;7.40;;
76117;SDS011;64851;50.232;20.364;2023-12-04T02:56:08;18.00;;;7.10;;
76117;SDS011;64851;50.232;20.364;2023-12-04T02:58:50;14.60;;;5.70;;
76117;SDS011;64851;50.232;20.364;2023-12-04T03:01:37;16.60;;;6.90;;
76117;SDS011;64851;50.232;20.364;2023-12-04T03:04:12;16.10;;;6.30;;
76117;SDS011;64851;50.232;20.364;2023-12-04T03:07:07;14.40;;;6.00;;
76117;SDS011;64851;50.232;20.364;2023-12-04T03:10:03;13.20;;;6.20;;
76117;SDS011;64851;50.232;20.364;2023-12-04T03:12:38;16.80;;;7.00;;
76117;SDS011;64851;50.232;20.364;2023-12-04T03:15:26;19.40;;;8.10;;
76117;SDS011;64851;50.232;20.364;2023-12-04T03:18:03;16.30;;;7.00;;
76117;SDS011;64851;50.232;20.364;2023-12-04T03:20:58;15.50;;;6.90;;
76117;SDS011;64851;50.232;20.364;2023-12-04T03:23:33;14.10;;;5.90;;
76117;SDS011;64851;50.232;20.364;2023-12-04T03:26:21;12.80;;;6.10;;
76117;SDS011;64851;50.232;20.364;2023-12-04T03:29:03;16.50;;;6.20;;
76117;SDS011;64851;50.232;20.364;2023-12-04T03:31:43;18.50;;;7.10;;
76117;SDS011;64851;50.232;20.364;2023-12-04T03:34:25;14.30;;;6.50;;
76117;SDS011;64851;50.232;20.364;2023-12-04T03:37:06;13.00;;;6.00;;
76117;SDS011;64851;50.232;20.364;2023-12-04T03:39:48;15.00;;;6.40;;
76117;SDS011;64851;50.232;20.364;2023-12-04T03:45:10;17.00;;;6.00;;
76117;SDS011;64851;50.232;20.364;2023-12-04T03:47:57;17.50;;;6.30;;
76117;SDS011;64851;50.232;20.364;2023-12-04T03:50:32;12.90;;;5.20;;
76117;SDS011;64851;50.232;20.364;2023-12-04T03:53:19;16.70;;;6.70;;
76117;SDS011;64851;50.232;20.364;2023-12-04T03:56:01;12.70;;;5.40;;
76117;SDS011;64851;50.232;20.364;2023-12-04T03:58:48;12.90;;;5.60;;
76117;SDS011;64851;50.232;20.364;2023-12-04T04:01:23;13.70;;;6.20;;
76117;SDS011;64851;50.232;20.364;2023-12-04T04:04:10;13.20;;;5.50;;
76117;SDS011;64851;50.232;20.364;2023-12-04T04:06:58;14.90;;;6.10;;
76117;SDS011;64851;50.232;20.364;2023-12-04T04:09:53;17.50;;;7.00;;
76117;SDS011;64851;50.232;20.364;2023-12-04T04:12:28;15.30;;;6.00;;
76117;SDS011;64851;50.232;20.364;2023-12-04T04:15:23;17.40;;;7.10;;
76117;SDS011;64851;50.232;20.364;2023-12-04T04:18:18;15.80;;;6.40;;
76117;SDS011;64851;50.232;20.364;2023-12-04T04:20:53;14.30;;;6.20;;
76117;SDS011;64851;50.232;20.364;2023-12-04T04:23:41;15.50;;;7.40;;
76117;SDS011;64851;50.232;20.364;2023-12-04T04:26:16;16.20;;;6.40;;
76117;SDS011;64851;50.232;20.364;2023-12-04T04:29:04;14.30;;;6.50;;
76117;SDS011;64851;50.232;20.364;2023-12-04T04:31:39;19.40;;;7.10;;
76117;SDS011;64851;50.232;20.364;2023-12-04T04:34:34;15.30;;;6.80;;
76117;SDS011;64851;50.232;20.364;2023-12-04T04:37:29;18.60;;;7.70;;
76117;SDS011;64851;50.232;20.364;2023-12-04T04:40:04;15.20;;;7.20;;
76117;SDS011;64851;50.232;20.364;2023-12-04T04:43:00;17.50;;;7.50;;
76117;SDS011;64851;50.232;20.364;2023-12-04T04:45:55;17.60;;;8.60;;
76117;SDS011;64851;50.232;20.364;2023-12-04T04:48:30;15.00;;;6.50;;
76117;SDS011;64851;50.232;20.364;2023-12-04T04:51:27;16.40;;;7.00;;
76117;SDS011;64851;50.232;20.364;2023-12-04T04:54:03;16.70;;;6.80;;
76117;SDS011;64851;50.232;20.364;2023-12-04T04:56:50;16.10;;;6.40;;
76117;SDS011;64851;50.232;20.364;2023-12-04T04:59:32;14.40;;;6.50;;
76117;SDS011;64851;50.232;20.364;2023-12-04T05:02:19;15.90;;;6.70;;
76117;SDS011;64851;50.232;20.364;2023-12-04T05:04:54;17.00;;;7.30;;
76117;SDS011;64851;50.232;20.364;2023-12-04T05:07:48;15.30;;;6.80;;
76117;SDS011;64851;50.232;20.364;2023-12-04T05:10:43;21.10;;;8.00;;
76117;SDS011;64851;50.232;20.364;2023-12-04T05:13:18;19.60;;;7.60;;
76117;SDS011;64851;50.232;20.364;2023-12-04T05:16:13;18.90;;;8.00;;
76117;SDS011;64851;50.232;20.364;2023-12-04T05:18:48;14.40;;;6.80;;
76117;SDS011;64851;50.232;20.364;2023-12-04T05:21:43;18.00;;;6.70;;
76117;SDS011;64851;50.232;20.364;2023-12-04T05:24:38;15.80;;;6.90;;
76117;SDS011;64851;50.232;20.364;2023-12-04T05:27:13;16.10;;;6.90;;
76117;SDS011;64851;50.232;20.364;2023-12-04T05:30:01;16.60;;;7.10;;
76117;SDS011;64851;50.232;20.364;2023-12-04T05:32:36;17.30;;;6.70;;
76117;SDS011;64851;50.232;20.364;2023-12-04T05:35:25;14.00;;;6.10;;
76117;SDS011;64851;50.232;20.364;2023-12-04T05:38:00;19.90;;;6.80;;
76117;SDS011;64851;50.232;20.364;2023-12-04T05:40:55;16.20;;;7.00;;
76117;SDS011;64851;50.232;20.364;2023-12-04T05:43:50;12.00;;;5.80;;
76117;SDS011;64851;50.232;20.364;2023-12-04T05:46:25;16.90;;;5.80;;
76117;SDS011;64851;50.232;20.364;2023-12-04T05:49:20;14.40;;;5.50;;
76117;SDS011;64851;50.232;20.364;2023-12-04T05:52:16;13.30;;;6.00;;
76117;SDS011;64851;50.232;20.364;2023-12-04T05:54:51;16.50;;;6.60;;
76117;SDS011;64851;50.232;20.364;2023-12-04T05:57:39;18.40;;;6.10;;
76117;SDS011;64851;50.232;20.364;2023-12-04T06:00:14;15.60;;;6.10;;
76117;SDS011;64851;50.232;20.364;2023-12-04T06:03:06;15.20;;;6.30;;
76117;SDS011;64851;50.232;20.364;2023-12-04T06:05:54;13.90;;;6.20;;
76117;SDS011;64851;50.232;20.364;2023-12-04T06:08:49;15.10;;;6.20;;
76117;SDS011;64851;50.232;20.364;2023-12-04T06:11:44;14.50;;;5.60;;
76117;SDS011;64851;50.232;20.364;2023-12-04T06:14:19;19.40;;;7.00;;
76117;SDS011;64851;50.232;20.364;2023-12-04T06:17:07;17.20;;;7.00;;
76117;SDS011;64851;50.232;20.364;2023-12-04T06:19:42;11.60;;;5.90;;
76117;SDS011;64851;50.232;20.364;2023-12-04T06:22:37;12.70;;;5.60;;
76117;SDS011;64851;50.232;20.364;2023-12-04T06:25:32;17.50;;;6.30;;
76117;SDS011;64851;50.232;20.364;2023-12-04T06:28:07;16.70;;;6.60;;
76117;SDS011;64851;50.232;20.364;2023-12-04T06:31:02;14.00;;;6.30;;
76117;SDS011;64851;50.232;20.364;2023-12-04T06:33:37;14.10;;;7.20;;
76117;SDS011;64851;50.232;20.364;2023-12-04T06:36:25;17.10;;;7.20;;
76117;SDS011;64851;50.232;20.364;2023-12-04T06:39:01;14.10;;;7.60;;
76117;SDS011;64851;50.232;20.364;2023-12-04T06:41:49;16.70;;;7.30;;
76117;SDS011;64851;50.232;20.364;2023-12-04T06:44:24;14.40;;;6.30;;
76117;SDS011;64851;50.232;20.364;2023-12-04T06:47:22;17.20;;;7.10;;
76117;SDS011;64851;50.232;20.364;2023-12-04T06:50:17;19.60;;;7.60;;
76117;SDS011;64851;50.232;20.364;2023-12-04T06:52:52;18.90;;;8.60;;
76117;SDS011;64851;50.232;20.364;2023-12-04T06:55:47;19.50;;;9.40;;
76117;SDS011;64851;50.232;20.364;2023-12-04T06:58:22;23.90;;;9.60;;
76117;SDS011;64851;50.232;20.364;2023-12-04T07:01:17;19.90;;;8.20;;
76117;SDS011;64851;50.232;20.364;2023-12-04T07:04:12;16.20;;;7.10;;
76117;SDS011;64851;50.232;20.364;2023-12-04T07:07:00;20.50;;;8.30;;
76117;SDS011;64851;50.232;20.364;2023-12-04T07:09:42;18.40;;;7.90;;
76117;SDS011;64851;50.232;20.364;2023-12-04T07:12:23;19.90;;;8.90;;
76117;SDS011;64851;50.232;20.364;2023-12-04T07:14:58;19.20;;;9.10;;
76117;SDS011;64851;50.232;20.364;2023-12-04T07:17:53;19.30;;;7.80;;
76117;SDS011;64851;50.232;20.364;2023-12-04T07:20:48;14.60;;;6.10;;
76117;SDS011;64851;50.232;20.364;2023-12-04T07:23:23;17.00;;;7.40;;
76117;SDS011;64851;50.232;20.364;2023-12-04T07:26:11;15.00;;;6.40;;
76117;SDS011;64851;50.232;20.364;2023-12-04T07:28:46;16.70;;;7.10;;
76117;SDS011;64851;50.232;20.364;2023-12-04T07:31:41;19.30;;;7.10;;
76117;SDS011;64851;50.232;20.364;2023-12-04T07:34:36;14.10;;;6.60;;
76117;SDS011;64851;50.232;20.364;2023-12-04T07:37:11;16.80;;;8.10;;
76117;SDS011;64851;50.232;20.364;2023-12-04T07:39:59;17.00;;;7.20;;
76117;SDS011;64851;50.232;20.364;2023-12-04T07:42:34;19.60;;;8.20;;
76117;SDS011;64851;50.232;20.364;2023-12-04T07:45:23;21.50;;;9.10;;
76117;SDS011;64851;50.232;20.364;2023-12-04T07:47:58;19.30;;;8.80;;
76117;SDS011;64851;50.232;20.364;2023-12-04T07:50:46;17.00;;;9.30;;
76117;SDS011;64851;50.232;20.364;2023-12-04T07:53:21;15.20;;;7.00;;
76117;SDS011;64851;50.232;20.364;2023-12-04T07:56:16;18.00;;;8.90;;
76117;SDS011;64851;50.232;20.364;2023-12-04T07:58:51;21.30;;;8.80;;
76117;SDS011;64851;50.232;20.364;2023-12-04T08:01:38;19.50;;;8.60;;
76117;SDS011;64851;50.232;20.364;2023-12-04T08:04:14;20.90;;;9.70;;
76117;SDS011;64851;50.232;20.364;2023-12-04T08:07:01;20.10;;;10.00;;
76117;SDS011;64851;50.232;20.364;2023-12-04T08:09:43;19.10;;;8.60;;
76117;SDS011;64851;50.232;20.364;2023-12-04T08:12:31;18.80;;;9.70;;
76117;SDS011;64851;50.232;20.364;2023-12-04T08:15:14;20.00;;;9.40;;
76117;SDS011;64851;50.232;20.364;2023-12-04T08:17:55;18.50;;;10.20;;
76117;SDS011;64851;50.232;20.364;2023-12-04T08:20:39;22.70;;;10.70;;
76117;SDS011;64851;50.232;20.364;2023-12-04T08:23:35;21.60;;;11.60;;
76117;SDS011;64851;50.232;20.364;2023-12-04T08:26:31;26.90;;;11.40;;
76117;SDS011;64851;50.232;20.364;2023-12-04T08:29:06;30.50;;;13.40;;
76117;SDS011;64851;50.232;20.364;2023-12-04T08:31:54;26.70;;;11.10;;
76117;SDS011;64851;50.232;20.364;2023-12-04T08:34:29;25.50;;;11.70;;
76117;SDS011;64851;50.232;20.364;2023-12-04T08:37:24;24.40;;;11.70;;
76117;SDS011;64851;50.232;20.364;2023-12-04T08:40:19;24.50;;;11.90;;
76117;SDS011;64851;50.232;20.364;2023-12-04T08:42:54;25.70;;;12.20;;
76117;SDS011;64851;50.232;20.364;2023-12-04T08:45:49;24.90;;;11.10;;
76117;SDS011;64851;50.232;20.364;2023-12-04T08:48:44;19.90;;;10.80;;
76117;SDS011;64851;50.232;20.364;2023-12-04T08:51:19;21.60;;;10.10;;
76117;SDS011;64851;50.232;20.364;2023-12-04T08:54:15;25.40;;;11.70;;
76117;SDS011;64851;50.232;20.364;2023-12-04T08:57:11;20.20;;;10.20;;
76117;SDS011;64851;50.232;20.364;2023-12-04T08:59:53;20.30;;;11.50;;
76117;SDS011;64851;50.232;20.364;2023-12-04T09:02:34;22.20;;;10.00;;
76117;SDS011;64851;50.232;20.364;2023-12-04T09:05:29;23.10;;;11.60;;
76117;SDS011;64851;50.232;20.364;2023-12-04T09:08:25;22.10;;;11.60;;
76117;SDS011;64851;50.232;20.364;2023-12-04T09:11:10;22.50;;;11.00;;
76117;SDS011;64851;50.232;20.364;2023-12-04T09:14:04;29.80;;;10.60;;
76117;SDS011;64851;50.232;20.364;2023-12-04T09:16:39;26.30;;;13.00;;
76117;SDS011;64851;50.232;20.364;2023-12-04T09:19:28;28.70;;;13.60;;
76117;SDS011;64851;50.232;20.364;2023-12-04T09:22:04;22.30;;;12.40;;
76117;SDS011;64851;50.232;20.364;2023-12-04T09:25:01;22.50;;;12.40;;
76117;SDS011;64851;50.232;20.364;2023-12-04T09:27:43;27.80;;;13.00;;
76117;SDS011;64851;50.232;20.364;2023-12-04T09:30:25;26.30;;;13.30;;
76117;SDS011;64851;50.232;20.364;2023-12-04T09:33:08;27.20;;;13.00;;
76117;SDS011;64851;50.232;20.364;2023-12-04T09:35:56;28.60;;;15.20;;
76117;SDS011;64851;50.232;20.364;2023-12-04T09:38:31;20.70;;;10.90;;
76117;SDS011;64851;50.232;20.364;2023-12-04T09:41:19;27.20;;;13.70;;
76117;SDS011;64851;50.232;20.364;2023-12-04T09:43:56;26.00;;;12.50;;
76117;SDS011;64851;50.232;20.364;2023-12-04T09:46:45;21.40;;;11.30;;
76117;SDS011;64851;50.232;20.364;2023-12-04T09:49:21;18.90;;;11.40;;
76117;SDS011;64851;50.232;20.364;2023-12-04T09:52:09;25.80;;;12.40;;
76117;SDS011;64851;50.232;20.364;2023-12-04T09:54:44;24.50;;;10.90;;
76117;SDS011;64851;50.232;20.364;2023-12-04T09:57:38;26.10;;;12.80;;
76117;SDS011;64851;50.232;20.364;2023-12-04T10:00:33;27.60;;;13.50;;
76117;SDS011;64851;50.232;20.364;2023-12-04T10:03:08;34.40;;;14.20;;
76117;SDS011;64851;50.232;20.364;2023-12-04T10:06:04;27.30;;;12.50;;
76117;SDS011;64851;50.232;20.364;2023-12-04T10:08:59;38.30;;;15.70;;
76117;SDS011;64851;50.232;20.364;2023-12-04T10:11:38;29.20;;;14.50;;
76117;SDS011;64851;50.232;20.364;2023-12-04T10:14:27;24.20;;;11.60;;
76117;SDS011;64851;50.232;20.364;2023-12-04T10:17:23;38.60;;;14.90;;
76117;SDS011;64851;50.232;20.364;2023-12-04T10:20:17;32.80;;;13.90;;
76117;SDS011;64851;50.232;20.364;2023-12-04T10:23:12;25.60;;;13.30;;
76117;SDS011;64851;50.232;20.364;2023-12-04T10:25:50;35.70;;;14.10;;
76117;SDS011;64851;50.232;20.364;2023-12-04T10:28:38;23.70;;;11.80;;
76117;SDS011;64851;50.232;20.364;2023-12-04T10:31:13;27.30;;;12.40;;
76117;SDS011;64851;50.232;20.364;2023-12-04T10:34:02;19.70;;;9.50;;
76117;SDS011;64851;50.232;20.364;2023-12-04T10:36:45;21.50;;;9.80;;
76117;SDS011;64851;50.232;20.364;2023-12-04T10:39:27;29.40;;;14.90;;
76117;SDS011;64851;50.232;20.364;2023-12-04T10:42:09;16.50;;;7.70;;
76117;SDS011;64851;50.232;20.364;2023-12-04T10:44:51;16.80;;;8.60;;
76117;SDS011;64851;50.232;20.364;2023-12-04T10:47:33;17.60;;;8.10;;
76117;SDS011;64851;50.232;20.364;2023-12-04T10:50:15;22.00;;;8.80;;
76117;SDS011;64851;50.232;20.364;2023-12-04T10:52:58;15.50;;;7.50;;
76117;SDS011;64851;50.232;20.364;2023-12-04T10:55:45;15.70;;;7.90;;
76117;SDS011;64851;50.232;20.364;2023-12-04T10:58:29;18.30;;;8.70;;
76117;SDS011;64851;50.232;20.364;2023-12-04T11:01:19;19.60;;;9.00;;
76117;SDS011;64851;50.232;20.364;2023-12-04T11:04:01;20.10;;;10.80;;
76117;SDS011;64851;50.232;20.364;2023-12-04T11:06:52;17.70;;;9.40;;
76117;SDS011;64851;50.232;20.364;2023-12-04T11:09:47;25.00;;;11.10;;
76117;SDS011;64851;50.232;20.364;2023-12-04T11:12:25;23.80;;;11.60;;
76117;SDS011;64851;50.232;20.364;2023-12-04T11:15:14;26.60;;;11.00;;
76117;SDS011;64851;50.232;20.364;2023-12-04T11:17:53;25.20;;;10.70;;
76117;SDS011;64851;50.232;20.364;2023-12-04T11:20:59;21.80;;;11.40;;
76117;SDS011;64851;50.232;20.364;2023-12-04T11:23:59;21.20;;;10.20;;
76117;SDS011;64851;50.232;20.364;2023-12-04T11:26:35;21.20;;;9.50;;
76117;SDS011;64851;50.232;20.364;2023-12-04T11:29:23;22.90;;;11.00;;
76117;SDS011;64851;50.232;20.364;2023-12-04T11:31:58;18.10;;;9.00;;
76117;SDS011;64851;50.232;20.364;2023-12-04T11:34:50;19.90;;;9.20;;
76117;SDS011;64851;50.232;20.364;2023-12-04T11:37:28;21.50;;;10.10;;
76117;SDS011;64851;50.232;20.364;2023-12-04T11:40:23;22.10;;;11.50;;
76117;SDS011;64851;50.232;20.364;2023-12-04T11:42:59;18.70;;;8.70;;
76117;SDS011;64851;50.232;20.364;2023-12-04T11:46:07;20.30;;;11.00;;
76117;SDS011;64851;50.232;20.364;2023-12-04T11:55:08;19.90;;;9.90;;
76117;SDS011;64851;50.232;20.364;2023-12-04T11:57:57;18.10;;;9.30;;
76117;SDS011;64851;50.232;20.364;2023-12-04T12:00:34;23.00;;;11.70;;
76117;SDS011;64851;50.232;20.364;2023-12-04T12:03:22;22.00;;;10.40;;
76117;SDS011;64851;50.232;20.364;2023-12-04T12:05:58;16.50;;;8.60;;
76117;SDS011;64851;50.232;20.364;2023-12-04T12:08:46;16.30;;;8.20;;
76117;SDS011;64851;50.232;20.364;2023-12-04T12:11:22;20.00;;;10.30;;
76117;SDS011;64851;50.232;20.364;2023-12-04T12:14:10;17.00;;;7.90;;
76117;SDS011;64851;50.232;20.364;2023-12-04T12:17:24;16.80;;;8.70;;
76117;SDS011;64851;50.232;20.364;2023-12-04T12:20:19;19.70;;;10.40;;
76117;SDS011;64851;50.232;20.364;2023-12-04T12:22:55;31.20;;;16.70;;
76117;SDS011;64851;50.232;20.364;2023-12-04T12:25:43;22.30;;;11.40;;
76117;SDS011;64851;50.232;20.364;2023-12-04T12:28:19;15.50;;;6.80;;
76117;SDS011;64851;50.232;20.364;2023-12-04T12:31:14;28.70;;;12.70;;
76117;SDS011;64851;50.232;20.364;2023-12-04T12:34:08;16.30;;;8.90;;
76117;SDS011;64851;50.232;20.364;2023-12-04T12:37:03;15.70;;;8.90;;
76117;SDS011;64851;50.232;20.364;2023-12-04T12:39:39;19.00;;;9.40;;
76117;SDS011;64851;50.232;20.364;2023-12-04T12:42:28;19.70;;;8.90;;
76117;SDS011;64851;50.232;20.364;2023-12-04T12:45:04;18.10;;;8.20;;
76117;SDS011;64851;50.232;20.364;2023-12-04T12:47:53;21.20;;;10.40;;
76117;SDS011;64851;50.232;20.364;2023-12-04T12:50:31;21.50;;;11.40;;
76117;SDS011;64851;50.232;20.364;2023-12-04T12:53:26;27.00;;;12.10;;
76117;SDS011;64851;50.232;20.364;2023-12-04T12:56:25;33.30;;;14.00;;
76117;SDS011;64851;50.232;20.364;2023-12-04T12:59:00;21.60;;;9.90;;
76117;SDS011;64851;50.232;20.364;2023-12-04T13:01:48;19.40;;;9.10;;
76117;SDS011;64851;50.232;20.364;2023-12-04T13:04:23;20.50;;;9.00;;
76117;SDS011;64851;50.232;20.364;2023-12-04T13:07:11;26.10;;;14.10;;
76117;SDS011;64851;50.232;20.364;2023-12-04T13:09:46;16.30;;;8.50;;
76117;SDS011;64851;50.232;20.364;2023-12-04T13:12:44;19.30;;;8.20;;
76117;SDS011;64851;50.232;20.364;2023-12-04T13:15:43;19.70;;;9.00;;
76117;SDS011;64851;50.232;20.364;2023-12-04T13:18:38;20.50;;;9.90;;
76117;SDS011;64851;50.232;20.364;2023-12-04T13:21:16;29.60;;;16.50;;
76117;SDS011;64851;50.232;20.364;2023-12-04T13:24:04;33.50;;;18.70;;
76117;SDS011;64851;50.232;20.364;2023-12-04T13:26:43;29.90;;;16.80;;
76117;SDS011;64851;50.232;20.364;2023-12-04T13:29:38;26.30;;;16.60;;
76117;SDS011;64851;50.232;20.364;2023-12-04T13:32:37;26.80;;;16.60;;
76117;SDS011;64851;50.232;20.364;2023-12-04T13:35:12;22.80;;;14.10;;
76117;SDS011;64851;50.232;20.364;2023-12-04T13:38:08;21.70;;;12.80;;
76117;SDS011;64851;50.232;20.364;2023-12-04T13:41:03;22.50;;;13.30;;
76117;SDS011;64851;50.232;20.364;2023-12-04T13:44:09;23.40;;;13.60;;
76117;SDS011;64851;50.232;20.364;2023-12-04T13:46:46;26.90;;;14.10;;
76117;SDS011;64851;50.232;20.364;2023-12-04T13:49:33;28.40;;;14.70;;
76117;SDS011;64851;50.232;20.364;2023-12-04T13:52:08;23.80;;;14.50;;
76117;SDS011;64851;50.232;20.364;2023-12-04T13:54:55;22.10;;;13.20;;
76117;SDS011;64851;50.232;20.364;2023-12-04T13:57:39;28.40;;;16.10;;
76117;SDS011;64851;50.232;20.364;2023-12-04T14:00:45;26.60;;;14.70;;
76117;SDS011;64851;50.232;20.364;2023-12-04T14:03:27;27.10;;;15.70;;
76117;SDS011;64851;50.232;20.364;2023-12-04T14:06:15;45.30;;;18.80;;
76117;SDS011;64851;50.232;20.364;2023-12-04T14:08:51;43.30;;;17.20;;
76117;SDS011;64851;50.232;20.364;2023-12-04T14:11:41;33.50;;;16.70;;
76117;SDS011;64851;50.232;20.364;2023-12-04T14:14:25;28.70;;;16.00;;
76117;SDS011;64851;50.232;20.364;2023-12-04T14:17:08;23.20;;;11.50;;
76117;SDS011;64851;50.232;20.364;2023-12-04T14:19:53;27.10;;;12.50;;
76117;SDS011;64851;50.232;20.364;2023-12-04T14:22:34;27.90;;;11.90;;
76117;SDS011;64851;50.232;20.364;2023-12-04T14:25:16;29.80;;;13.10;;
76117;SDS011;64851;50.232;20.364;2023-12-04T14:28:11;26.90;;;13.40;;
76117;SDS011;64851;50.232;20.364;2023-12-04T14:31:12;27.80;;;12.00;;
76117;SDS011;64851;50.232;20.364;2023-12-04T14:33:47;20.90;;;10.00;;
76117;SDS011;64851;50.232;20.364;2023-12-04T14:36:42;23.20;;;10.90;;
76117;SDS011;64851;50.232;20.364;2023-12-04T14:39:37;23.10;;;11.30;;
76117;SDS011;64851;50.232;20.364;2023-12-04T14:42:12;26.90;;;13.30;;
76117;SDS011;64851;50.232;20.364;2023-12-04T14:45:07;29.60;;;12.70;;
76117;SDS011;64851;50.232;20.364;2023-12-04T14:47:43;23.80;;;13.00;;
76117;SDS011;64851;50.232;20.364;2023-12-04T14:50:34;27.20;;;12.40;;
76117;SDS011;64851;50.232;20.364;2023-12-04T14:53:14;27.00;;;12.90;;
76117;SDS011;64851;50.232;20.364;2023-12-04T14:56:28;26.10;;;12.10;;
76117;SDS011;64851;50.232;20.364;2023-12-04T14:59:07;24.10;;;11.20;;
76117;SDS011;64851;50.232;20.364;2023-12-04T15:02:03;28.70;;;12.40;;
76117;SDS011;64851;50.232;20.364;2023-12-04T15:04:50;33.70;;;12.50;;
76117;SDS011;64851;50.232;20.364;2023-12-04T15:07:50;24.70;;;11.30;;
76117;SDS011;64851;50.232;20.364;2023-12-04T15:10:39;25.00;;;10.70;;
76117;SDS011;64851;50.232;20.364;2023-12-04T15:13:53;23.20;;;9.80;;
76117;SDS011;64851;50.232;20.364;2023-12-04T15:17:04;26.00;;;11.00;;
76117;SDS011;64851;50.232;20.364;2023-12-04T15:20:17;23.30;;;9.10;;
76117;SDS011;64851;50.232;20.364;2023-12-04T15:23:16;50.60;;;17.10;;
76117;SDS011;64851;50.232;20.364;2023-12-04T15:25:53;63.70;;;24.60;;
76117;SDS011;64851;50.232;20.364;2023-12-04T15:28:49;93.70;;;43.60;;
76117;SDS011;64851;50.232;20.364;2023-12-04T15:31:48;57.20;;;26.40;;
76117;SDS011;64851;50.232;20.364;2023-12-04T15:34:25;74.30;;;31.20;;
76117;SDS011;64851;50.232;20.364;2023-12-04T15:37:21;76.50;;;31.00;;
76117;SDS011;64851;50.232;20.364;2023-12-04T15:40:05;76.80;;;31.10;;
76117;SDS011;64851;50.232;20.364;2023-12-04T15:42:47;90.80;;;34.30;;
76117;SDS011;64851;50.232;20.364;2023-12-04T15:45:29;75.80;;;31.70;;
76117;SDS011;64851;50.232;20.364;2023-12-04T15:48:10;58.90;;;26.30;;
76117;SDS011;64851;50.232;20.364;2023-12-04T15:50:52;54.80;;;22.90;;
76117;SDS011;64851;50.232;20.364;2023-12-04T15:53:40;74.10;;;37.00;;
76117;SDS011;64851;50.232;20.364;2023-12-04T15:56:15;52.60;;;24.70;;
76117;SDS011;64851;50.232;20.364;2023-12-04T15:59:02;55.90;;;24.60;;
76117;SDS011;64851;50.232;20.364;2023-12-04T16:01:44;51.70;;;23.50;;
76117;SDS011;64851;50.232;20.364;2023-12-04T16:04:32;47.30;;;19.50;;
76117;SDS011;64851;50.232;20.364;2023-12-04T16:07:08;96.10;;;34.80;;
76117;SDS011;64851;50.232;20.364;2023-12-04T16:09:55;101.00;;;35.80;;
76117;SDS011;64851;50.232;20.364;2023-12-04T16:12:31;59.50;;;24.30;;
76117;SDS011;64851;50.232;20.364;2023-12-04T16:15:19;53.00;;;21.00;;